weather.gov     
National Weather Service

Terminal Aerodrome Forecast
NWS Homepage
This page is being discontinued on March 12, 2014.
The same data is available at this site. Please update your bookmarks.
Thank you, and we apologize for the inconvenience.
Please send an email to SR-SRH.Webmaster@noaa.gov with any concerns.


Current Version
Previous Version:    01  02  03  04  05  06  07  08  09  10  11  12  13  14  15  16  17  18  19  20  21  22  23  24  25  26  27  28  29  30  
   31  
[Printable]
202
FTUS44 KCRP 200500
TAFALI
TAF
KALI 200539Z 2006/2106 12008KT P6SM OVC070
     FM200800 14004KT 5SM BR BKN012
      TEMPO 2010/2012 BKN008 OVC012
     FM201500 15012G18KT P6SM OVC018
     FM201800 14018G25KT P6SM BKN035
     FM210300 12012KT P6SM SCT015 BKN100=


U.S. Dept. of Commerce
NOAA National Weather Service
1325 East West Highway
Silver Spring, MD 20910
E-mail: w-nws.webmaster@noaa.gov
Page last modified: May 16, 2007
NATIONAL WEATHER SERVICE: for Safety, for Work, for Fun - FOR LIFE